Main page
METAR-TAF:

METAR-TAF

Airports :

Recife, Pernambuco, Brazil

Recife/Guararapes–Gilberto Freyre International Airport

latitude: 08-08S, longitude: 034-55W, elevation: 19 m

Current weather observation

The report was made 15 minutes ago, at 06:00 UTC
Wind 6 kt from the Southwest
Temperature 25°C
Humidity 94%
Pressure 1013 hPa
Visibility 10 km or more
Scattered clouds at a height of 1900 ft
Scattered clouds at a height of 6500 ft
showers in vicinity

METAR: SBRF 010600Z 22006KT 9999 VCSH SCT019 SCT065 25/24 Q1013

Time: 03:15 (06:15 UTC)

Forecast

The report was made 4 hours and 15 minutes ago, at 02:00 UTC
Forecast valid from 01 at 06 UTC to 02 at 06 UTC
Wind 4 kt from the Southwest
Visibility: 8000 m
Scattered clouds at a height of 2000 ft

TAF: SBRF 010200Z 0106/0206 22004KT 8000 SCT020 TN26/0108Z TX30/0115Z RMK PEA

Weather observations and forecasts of more than 4000 airports (METAR and TAF reports).

The available stations are represented by yellow and red dots on the map.

Hover mouse over dot to see the name of the station.

Then click to see weather observations and forecasts.

To change the map : click on the green buttons with a black cross to zoom in, on the green button with a dash to zoom out, or on the green arrows for adjacent maps.


METAR-TAF: